sensor_id;sensor_type;location;lat;lon;timestamp;temperature;humidity
43338;DHT22;28933;52.492;13.434;2022-07-10T00:01:05;17.00;84.10
43338;DHT22;28933;52.492;13.434;2022-07-10T00:03:31;17.00;84.10
43338;DHT22;28933;52.492;13.434;2022-07-10T00:05:57;17.00;84.00
43338;DHT22;28933;52.492;13.434;2022-07-10T00:08:22;16.90;84.10
43338;DHT22;28933;52.492;13.434;2022-07-10T00:10:48;16.90;84.10
43338;DHT22;28933;52.492;13.434;2022-07-10T00:13:13;16.90;84.30
43338;DHT22;28933;52.492;13.434;2022-07-10T00:15:39;16.90;84.10
43338;DHT22;28933;52.492;13.434;2022-07-10T00:18:04;16.90;84.10
43338;DHT22;28933;52.492;13.434;2022-07-10T00:20:30;16.90;84.00
43338;DHT22;28933;52.492;13.434;2022-07-10T00:22:56;16.90;84.00
43338;DHT22;28933;52.492;13.434;2022-07-10T00:25:21;16.90;83.90
43338;DHT22;28933;52.492;13.434;2022-07-10T00:27:47;16.90;84.30
43338;DHT22;28933;52.492;13.434;2022-07-10T00:30:13;16.90;84.30
43338;DHT22;28933;52.492;13.434;2022-07-10T00:32:39;17.00;84.20
43338;DHT22;28933;52.492;13.434;2022-07-10T00:35:06;16.90;84.30
43338;DHT22;28933;52.492;13.434;2022-07-10T00:37:32;17.00;84.30
43338;DHT22;28933;52.492;13.434;2022-07-10T00:39:57;17.00;84.20
43338;DHT22;28933;52.492;13.434;2022-07-10T00:42:23;17.00;84.40
43338;DHT22;28933;52.492;13.434;2022-07-10T00:44:48;17.00;84.40
43338;DHT22;28933;52.492;13.434;2022-07-10T00:47:14;17.00;84.60
43338;DHT22;28933;52.492;13.434;2022-07-10T00:49:43;17.00;84.70
43338;DHT22;28933;52.492;13.434;2022-07-10T00:52:13;17.00;84.40
43338;DHT22;28933;52.492;13.434;2022-07-10T00:54:42;17.00;84.60
43338;DHT22;28933;52.492;13.434;2022-07-10T00:57:08;17.00;84.30
43338;DHT22;28933;52.492;13.434;2022-07-10T00:59:35;17.10;84.00
43338;DHT22;28933;52.492;13.434;2022-07-10T01:02:02;17.00;84.20
43338;DHT22;28933;52.492;13.434;2022-07-10T01:04:27;17.00;84.90
43338;DHT22;28933;52.492;13.434;2022-07-10T01:06:53;17.00;84.20
43338;DHT22;28933;52.492;13.434;2022-07-10T01:09:19;17.00;84.20
43338;DHT22;28933;52.492;13.434;2022-07-10T01:11:44;16.90;84.60
43338;DHT22;28933;52.492;13.434;2022-07-10T01:14:10;16.90;84.50
43338;DHT22;28933;52.492;13.434;2022-07-10T01:16:37;16.90;84.70
43338;DHT22;28933;52.492;13.434;2022-07-10T01:19:02;16.90;84.90
43338;DHT22;28933;52.492;13.434;2022-07-10T01:21:29;17.00;84.70
43338;DHT22;28933;52.492;13.434;2022-07-10T01:23:56;16.90;84.70
43338;DHT22;28933;52.492;13.434;2022-07-10T01:26:23;16.90;84.50
43338;DHT22;28933;52.492;13.434;2022-07-10T01:28:53;16.90;84.60
43338;DHT22;28933;52.492;13.434;2022-07-10T01:31:20;16.90;84.80
43338;DHT22;28933;52.492;13.434;2022-07-10T01:33:49;17.00;84.90
43338;DHT22;28933;52.492;13.434;2022-07-10T01:36:16;17.00;84.80
43338;DHT22;28933;52.492;13.434;2022-07-10T01:38:42;17.00;84.80
43338;DHT22;28933;52.492;13.434;2022-07-10T01:41:08;17.00;84.90
43338;DHT22;28933;52.492;13.434;2022-07-10T01:43:35;17.00;84.80
43338;DHT22;28933;52.492;13.434;2022-07-10T01:46:01;17.00;84.80
43338;DHT22;28933;52.492;13.434;2022-07-10T01:48:27;17.00;84.80
43338;DHT22;28933;52.492;13.434;2022-07-10T01:50:52;17.00;84.80
43338;DHT22;28933;52.492;13.434;2022-07-10T01:53:18;16.90;84.80
43338;DHT22;28933;52.492;13.434;2022-07-10T01:55:43;16.90;85.00
43338;DHT22;28933;52.492;13.434;2022-07-10T01:58:09;16.90;85.20
43338;DHT22;28933;52.492;13.434;2022-07-10T02:00:34;16.90;85.10
43338;DHT22;28933;52.492;13.434;2022-07-10T02:03:00;16.90;85.40
43338;DHT22;28933;52.492;13.434;2022-07-10T02:05:44;16.90;85.30
43338;DHT22;28933;52.492;13.434;2022-07-10T02:08:10;16.90;85.40
43338;DHT22;28933;52.492;13.434;2022-07-10T02:10:35;16.90;85.40
43338;DHT22;28933;52.492;13.434;2022-07-10T02:13:01;16.80;85.50
43338;DHT22;28933;52.492;13.434;2022-07-10T02:15:26;16.80;85.40
43338;DHT22;28933;52.492;13.434;2022-07-10T02:17:52;16.80;85.50
43338;DHT22;28933;52.492;13.434;2022-07-10T02:20:17;16.70;85.60
43338;DHT22;28933;52.492;13.434;2022-07-10T02:22:43;16.70;85.80
43338;DHT22;28933;52.492;13.434;2022-07-10T02:25:08;16.70;85.80
43338;DHT22;28933;52.492;13.434;2022-07-10T02:27:34;16.70;86.00
43338;DHT22;28933;52.492;13.434;2022-07-10T02:29:59;16.70;86.10
43338;DHT22;28933;52.492;13.434;2022-07-10T02:32:25;16.70;86.20
43338;DHT22;28933;52.492;13.434;2022-07-10T02:34:51;16.70;86.30
43338;DHT22;28933;52.492;13.434;2022-07-10T02:37:17;16.70;86.50
43338;DHT22;28933;52.492;13.434;2022-07-10T02:39:42;16.70;86.80
43338;DHT22;28933;52.492;13.434;2022-07-10T02:42:08;16.70;86.70
43338;DHT22;28933;52.492;13.434;2022-07-10T02:44:34;16.80;87.00
43338;DHT22;28933;52.492;13.434;2022-07-10T02:46:59;16.70;87.00
43338;DHT22;28933;52.492;13.434;2022-07-10T02:49:25;16.70;87.10
43338;DHT22;28933;52.492;13.434;2022-07-10T02:51:50;16.80;87.20
43338;DHT22;28933;52.492;13.434;2022-07-10T02:54:16;16.80;87.20
43338;DHT22;28933;52.492;13.434;2022-07-10T02:56:42;16.80;87.20
43338;DHT22;28933;52.492;13.434;2022-07-10T02:59:07;16.70;87.20
43338;DHT22;28933;52.492;13.434;2022-07-10T03:01:33;16.70;87.10
43338;DHT22;28933;52.492;13.434;2022-07-10T03:03:58;16.60;87.40
43338;DHT22;28933;52.492;13.434;2022-07-10T03:06:24;16.60;87.50
43338;DHT22;28933;52.492;13.434;2022-07-10T03:08:49;16.50;87.40
43338;DHT22;28933;52.492;13.434;2022-07-10T03:11:15;16.50;87.50
43338;DHT22;28933;52.492;13.434;2022-07-10T03:13:41;16.50;87.70
43338;DHT22;28933;52.492;13.434;2022-07-10T03:16:07;16.50;88.00
43338;DHT22;28933;52.492;13.434;2022-07-10T03:18:32;16.40;87.90
43338;DHT22;28933;52.492;13.434;2022-07-10T03:20:58;16.40;88.10
43338;DHT22;28933;52.492;13.434;2022-07-10T03:23:23;16.40;88.20
43338;DHT22;28933;52.492;13.434;2022-07-10T03:25:49;16.40;88.90
43338;DHT22;28933;52.492;13.434;2022-07-10T03:28:14;16.50;88.50
43338;DHT22;28933;52.492;13.434;2022-07-10T03:30:40;16.40;88.50
43338;DHT22;28933;52.492;13.434;2022-07-10T03:33:06;16.40;88.40
43338;DHT22;28933;52.492;13.434;2022-07-10T03:35:31;16.40;88.60
43338;DHT22;28933;52.492;13.434;2022-07-10T03:37:57;16.40;88.80
43338;DHT22;28933;52.492;13.434;2022-07-10T03:40:23;16.40;89.00
43338;DHT22;28933;52.492;13.434;2022-07-10T03:42:49;16.40;89.00
43338;DHT22;28933;52.492;13.434;2022-07-10T03:45:14;16.40;89.20
43338;DHT22;28933;52.492;13.434;2022-07-10T03:47:40;16.40;89.30
43338;DHT22;28933;52.492;13.434;2022-07-10T03:50:06;16.40;89.20
43338;DHT22;28933;52.492;13.434;2022-07-10T03:52:32;16.40;89.50
43338;DHT22;28933;52.492;13.434;2022-07-10T03:54:57;16.40;89.50
43338;DHT22;28933;52.492;13.434;2022-07-10T03:57:23;16.40;90.00
43338;DHT22;28933;52.492;13.434;2022-07-10T04:00:07;16.40;89.70
43338;DHT22;28933;52.492;13.434;2022-07-10T04:02:33;16.40;89.80
43338;DHT22;28933;52.492;13.434;2022-07-10T04:04:59;16.40;89.90
43338;DHT22;28933;52.492;13.434;2022-07-10T04:07:25;16.40;89.90
43338;DHT22;28933;52.492;13.434;2022-07-10T04:09:50;16.40;90.00
43338;DHT22;28933;52.492;13.434;2022-07-10T04:12:16;16.50;90.10
43338;DHT22;28933;52.492;13.434;2022-07-10T04:14:41;16.40;90.00
43338;DHT22;28933;52.492;13.434;2022-07-10T04:17:07;16.40;90.10
43338;DHT22;28933;52.492;13.434;2022-07-10T04:19:32;16.40;90.10
43338;DHT22;28933;52.492;13.434;2022-07-10T04:21:58;16.50;90.10
43338;DHT22;28933;52.492;13.434;2022-07-10T04:24:24;16.50;90.10
43338;DHT22;28933;52.492;13.434;2022-07-10T04:26:49;16.40;90.20
43338;DHT22;28933;52.492;13.434;2022-07-10T04:29:15;16.50;90.20
43338;DHT22;28933;52.492;13.434;2022-07-10T04:31:41;16.50;90.20
43338;DHT22;28933;52.492;13.434;2022-07-10T04:34:06;16.50;90.20
43338;DHT22;28933;52.492;13.434;2022-07-10T04:36:32;16.50;90.10
43338;DHT22;28933;52.492;13.434;2022-07-10T04:38:57;16.50;90.20
43338;DHT22;28933;52.492;13.434;2022-07-10T04:41:23;16.50;90.30
43338;DHT22;28933;52.492;13.434;2022-07-10T04:43:48;16.50;90.30
43338;DHT22;28933;52.492;13.434;2022-07-10T04:46:14;16.50;90.20
43338;DHT22;28933;52.492;13.434;2022-07-10T04:48:39;16.50;90.20
43338;DHT22;28933;52.492;13.434;2022-07-10T04:51:05;16.50;90.20
43338;DHT22;28933;52.492;13.434;2022-07-10T04:53:31;16.50;90.30
43338;DHT22;28933;52.492;13.434;2022-07-10T04:55:56;16.50;90.40
43338;DHT22;28933;52.492;13.434;2022-07-10T04:58:22;16.50;90.50
43338;DHT22;28933;52.492;13.434;2022-07-10T05:00:47;16.50;90.40
43338;DHT22;28933;52.492;13.434;2022-07-10T05:03:13;16.60;90.50
43338;DHT22;28933;52.492;13.434;2022-07-10T05:05:41;16.60;90.50
43338;DHT22;28933;52.492;13.434;2022-07-10T05:08:06;16.70;90.50
43338;DHT22;28933;52.492;13.434;2022-07-10T05:10:32;16.70;90.50
43338;DHT22;28933;52.492;13.434;2022-07-10T05:12:57;16.80;90.50
43338;DHT22;28933;52.492;13.434;2022-07-10T05:15:23;16.80;90.50
43338;DHT22;28933;52.492;13.434;2022-07-10T05:17:48;16.80;90.60
43338;DHT22;28933;52.492;13.434;2022-07-10T05:20:14;16.80;90.30
43338;DHT22;28933;52.492;13.434;2022-07-10T05:22:39;16.80;90.30
43338;DHT22;28933;52.492;13.434;2022-07-10T05:25:05;16.80;90.30
43338;DHT22;28933;52.492;13.434;2022-07-10T05:27:30;16.80;90.40
43338;DHT22;28933;52.492;13.434;2022-07-10T05:29:56;16.80;90.40
43338;DHT22;28933;52.492;13.434;2022-07-10T05:32:21;16.80;90.50
43338;DHT22;28933;52.492;13.434;2022-07-10T05:34:47;16.70;90.40
43338;DHT22;28933;52.492;13.434;2022-07-10T05:37:13;16.70;90.60
43338;DHT22;28933;52.492;13.434;2022-07-10T05:39:38;16.80;90.60
43338;DHT22;28933;52.492;13.434;2022-07-10T05:42:04;16.80;90.60
43338;DHT22;28933;52.492;13.434;2022-07-10T05:44:30;16.90;90.60
43338;DHT22;28933;52.492;13.434;2022-07-10T05:46:55;16.90;90.50
43338;DHT22;28933;52.492;13.434;2022-07-10T05:49:21;16.90;90.30
43338;DHT22;28933;52.492;13.434;2022-07-10T05:51:46;16.80;90.60
43338;DHT22;28933;52.492;13.434;2022-07-10T05:54:12;16.90;90.70
43338;DHT22;28933;52.492;13.434;2022-07-10T05:56:37;16.90;90.60
43338;DHT22;28933;52.492;13.434;2022-07-10T05:59:03;17.00;90.60
43338;DHT22;28933;52.492;13.434;2022-07-10T06:01:29;17.00;90.50
43338;DHT22;28933;52.492;13.434;2022-07-10T06:03:54;17.00;90.30
43338;DHT22;28933;52.492;13.434;2022-07-10T06:06:20;17.00;90.40
43338;DHT22;28933;52.492;13.434;2022-07-10T06:08:46;17.10;90.40
43338;DHT22;28933;52.492;13.434;2022-07-10T06:11:12;17.10;90.20
43338;DHT22;28933;52.492;13.434;2022-07-10T06:13:38;17.00;90.30
43338;DHT22;28933;52.492;13.434;2022-07-10T06:16:04;17.00;90.20
43338;DHT22;28933;52.492;13.434;2022-07-10T06:18:31;17.00;90.50
43338;DHT22;28933;52.492;13.434;2022-07-10T06:20:56;17.00;90.20
43338;DHT22;28933;52.492;13.434;2022-07-10T06:23:22;17.00;90.30
43338;DHT22;28933;52.492;13.434;2022-07-10T06:25:48;17.10;90.30
43338;DHT22;28933;52.492;13.434;2022-07-10T06:28:17;17.10;90.30
43338;DHT22;28933;52.492;13.434;2022-07-10T06:30:44;17.20;90.20
43338;DHT22;28933;52.492;13.434;2022-07-10T06:33:10;17.20;90.20
43338;DHT22;28933;52.492;13.434;2022-07-10T06:35:35;17.30;89.80
43338;DHT22;28933;52.492;13.434;2022-07-10T06:38:01;17.30;89.50
43338;DHT22;28933;52.492;13.434;2022-07-10T06:40:29;17.30;89.20
43338;DHT22;28933;52.492;13.434;2022-07-10T06:42:54;17.40;89.50
43338;DHT22;28933;52.492;13.434;2022-07-10T06:45:20;17.50;89.20
43338;DHT22;28933;52.492;13.434;2022-07-10T06:47:46;17.50;89.00
43338;DHT22;28933;52.492;13.434;2022-07-10T06:50:22;17.40;88.60
43338;DHT22;28933;52.492;13.434;2022-07-10T06:52:48;17.40;89.00
43338;DHT22;28933;52.492;13.434;2022-07-10T06:55:14;17.50;89.10
43338;DHT22;28933;52.492;13.434;2022-07-10T06:57:40;17.50;88.80
43338;DHT22;28933;52.492;13.434;2022-07-10T07:00:07;17.60;89.00
43338;DHT22;28933;52.492;13.434;2022-07-10T07:02:34;17.70;88.60
43338;DHT22;28933;52.492;13.434;2022-07-10T07:05:00;17.70;88.50
43338;DHT22;28933;52.492;13.434;2022-07-10T07:07:25;17.80;88.20
43338;DHT22;28933;52.492;13.434;2022-07-10T07:09:51;17.90;88.40
43338;DHT22;28933;52.492;13.434;2022-07-10T07:12:17;17.90;87.30
43338;DHT22;28933;52.492;13.434;2022-07-10T07:14:43;18.00;87.10
43338;DHT22;28933;52.492;13.434;2022-07-10T07:17:09;18.10;87.10
43338;DHT22;28933;52.492;13.434;2022-07-10T07:19:37;18.20;86.90
43338;DHT22;28933;52.492;13.434;2022-07-10T07:22:24;18.30;86.60
43338;DHT22;28933;52.492;13.434;2022-07-10T07:25:09;18.30;85.60
43338;DHT22;28933;52.492;13.434;2022-07-10T07:27:36;18.40;85.80
43338;DHT22;28933;52.492;13.434;2022-07-10T07:30:07;18.50;85.20
43338;DHT22;28933;52.492;13.434;2022-07-10T07:32:33;18.50;85.40
43338;DHT22;28933;52.492;13.434;2022-07-10T07:35:00;18.60;85.30
43338;DHT22;28933;52.492;13.434;2022-07-10T07:40:09;18.70;84.00
43338;DHT22;28933;52.492;13.434;2022-07-10T07:42:35;18.80;83.30
43338;DHT22;28933;52.492;13.434;2022-07-10T07:45:01;18.90;83.10
43338;DHT22;28933;52.492;13.434;2022-07-10T07:47:27;19.00;81.40
43338;DHT22;28933;52.492;13.434;2022-07-10T07:49:53;18.90;80.40
43338;DHT22;28933;52.492;13.434;2022-07-10T07:52:18;18.90;81.10
43338;DHT22;28933;52.492;13.434;2022-07-10T07:54:44;18.90;80.30
43338;DHT22;28933;52.492;13.434;2022-07-10T07:57:10;18.90;80.70
43338;DHT22;28933;52.492;13.434;2022-07-10T07:59:36;18.90;81.00
43338;DHT22;28933;52.492;13.434;2022-07-10T08:02:01;19.10;81.00
43338;DHT22;28933;52.492;13.434;2022-07-10T08:04:27;19.20;80.70
43338;DHT22;28933;52.492;13.434;2022-07-10T08:06:52;19.30;80.20
43338;DHT22;28933;52.492;13.434;2022-07-10T08:09:19;19.40;79.80
43338;DHT22;28933;52.492;13.434;2022-07-10T08:11:45;19.50;79.70
43338;DHT22;28933;52.492;13.434;2022-07-10T08:14:11;19.50;78.00
43338;DHT22;28933;52.492;13.434;2022-07-10T08:16:37;19.50;78.60
43338;DHT22;28933;52.492;13.434;2022-07-10T08:19:02;19.50;79.00
43338;DHT22;28933;52.492;13.434;2022-07-10T08:21:28;19.60;80.00
43338;DHT22;28933;52.492;13.434;2022-07-10T08:23:54;19.60;77.30
43338;DHT22;28933;52.492;13.434;2022-07-10T08:26:19;19.60;76.70
43338;DHT22;28933;52.492;13.434;2022-07-10T08:28:45;19.60;76.90
43338;DHT22;28933;52.492;13.434;2022-07-10T08:31:11;19.60;76.20
43338;DHT22;28933;52.492;13.434;2022-07-10T08:33:36;19.60;76.10
43338;DHT22;28933;52.492;13.434;2022-07-10T08:36:02;19.60;76.00
43338;DHT22;28933;52.492;13.434;2022-07-10T08:38:29;19.60;74.70
43338;DHT22;28933;52.492;13.434;2022-07-10T08:40:56;19.50;75.20
43338;DHT22;28933;52.492;13.434;2022-07-10T08:43:24;19.50;74.90
43338;DHT22;28933;52.492;13.434;2022-07-10T08:45:50;19.40;75.60
43338;DHT22;28933;52.492;13.434;2022-07-10T08:48:22;19.40;75.70
43338;DHT22;28933;52.492;13.434;2022-07-10T08:50:51;19.40;75.80
43338;DHT22;28933;52.492;13.434;2022-07-10T08:53:29;19.40;75.70
43338;DHT22;28933;52.492;13.434;2022-07-10T08:55:57;19.40;75.50
43338;DHT22;28933;52.492;13.434;2022-07-10T08:58:23;19.50;75.40
43338;DHT22;28933;52.492;13.434;2022-07-10T09:00:49;19.50;75.50
43338;DHT22;28933;52.492;13.434;2022-07-10T09:03:15;19.60;75.90
43338;DHT22;28933;52.492;13.434;2022-07-10T09:05:41;19.60;76.00
43338;DHT22;28933;52.492;13.434;2022-07-10T09:08:26;19.70;75.90
43338;DHT22;28933;52.492;13.434;2022-07-10T09:11:15;19.70;75.80
43338;DHT22;28933;52.492;13.434;2022-07-10T09:13:51;19.60;74.90
43338;DHT22;28933;52.492;13.434;2022-07-10T09:18:48;19.40;75.30
43338;DHT22;28933;52.492;13.434;2022-07-10T09:21:13;19.40;75.20
43338;DHT22;28933;52.492;13.434;2022-07-10T09:23:39;19.40;74.40
43338;DHT22;28933;52.492;13.434;2022-07-10T09:26:05;19.40;74.40
43338;DHT22;28933;52.492;13.434;2022-07-10T09:28:30;19.40;73.70
43338;DHT22;28933;52.492;13.434;2022-07-10T09:30:56;19.50;74.20
43338;DHT22;28933;52.492;13.434;2022-07-10T09:33:25;19.70;74.60
43338;DHT22;28933;52.492;13.434;2022-07-10T09:36:04;19.80;73.90
43338;DHT22;28933;52.492;13.434;2022-07-10T09:41:14;19.90;73.50
43338;DHT22;28933;52.492;13.434;2022-07-10T09:44:06;20.10;73.40
43338;DHT22;28933;52.492;13.434;2022-07-10T09:46:38;20.20;72.00
43338;DHT22;28933;52.492;13.434;2022-07-10T09:49:11;20.10;71.40
43338;DHT22;28933;52.492;13.434;2022-07-10T09:51:45;20.00;71.80
43338;DHT22;28933;52.492;13.434;2022-07-10T09:54:11;20.00;71.80
43338;DHT22;28933;52.492;13.434;2022-07-10T09:56:40;20.00;71.80
43338;DHT22;28933;52.492;13.434;2022-07-10T09:59:13;20.00;71.90
43338;DHT22;28933;52.492;13.434;2022-07-10T10:01:49;20.00;72.50
43338;DHT22;28933;52.492;13.434;2022-07-10T10:04:20;20.10;72.30
43338;DHT22;28933;52.492;13.434;2022-07-10T10:06:50;20.10;71.30
43338;DHT22;28933;52.492;13.434;2022-07-10T10:09:28;20.10;72.30
43338;DHT22;28933;52.492;13.434;2022-07-10T10:11:59;20.10;71.80
43338;DHT22;28933;52.492;13.434;2022-07-10T10:14:28;20.10;71.50
43338;DHT22;28933;52.492;13.434;2022-07-10T10:16:55;20.10;71.80
43338;DHT22;28933;52.492;13.434;2022-07-10T10:19:23;20.10;71.20
43338;DHT22;28933;52.492;13.434;2022-07-10T10:22:08;20.20;70.90
43338;DHT22;28933;52.492;13.434;2022-07-10T10:24:34;20.10;71.20
43338;DHT22;28933;52.492;13.434;2022-07-10T10:27:04;20.20;71.60
43338;DHT22;28933;52.492;13.434;2022-07-10T10:29:31;20.20;70.70
43338;DHT22;28933;52.492;13.434;2022-07-10T10:31:57;20.20;70.60
43338;DHT22;28933;52.492;13.434;2022-07-10T10:39:52;20.40;70.30
43338;DHT22;28933;52.492;13.434;2022-07-10T10:42:36;20.40;69.80
43338;DHT22;28933;52.492;13.434;2022-07-10T10:45:37;20.30;69.70
43338;DHT22;28933;52.492;13.434;2022-07-10T10:48:07;20.40;69.70
43338;DHT22;28933;52.492;13.434;2022-07-10T10:50:39;20.50;68.40
43338;DHT22;28933;52.492;13.434;2022-07-10T10:53:12;20.60;68.50
43338;DHT22;28933;52.492;13.434;2022-07-10T10:55:39;20.60;67.50
43338;DHT22;28933;52.492;13.434;2022-07-10T10:58:16;20.60;67.90
43338;DHT22;28933;52.492;13.434;2022-07-10T11:00:49;20.60;67.30
43338;DHT22;28933;52.492;13.434;2022-07-10T11:03:20;20.70;66.90
43338;DHT22;28933;52.492;13.434;2022-07-10T11:05:47;20.70;66.80
43338;DHT22;28933;52.492;13.434;2022-07-10T11:08:13;20.80;67.40
43338;DHT22;28933;52.492;13.434;2022-07-10T11:10:40;20.90;67.10
43338;DHT22;28933;52.492;13.434;2022-07-10T11:13:14;21.00;65.90
43338;DHT22;28933;52.492;13.434;2022-07-10T11:15:42;20.90;66.20
43338;DHT22;28933;52.492;13.434;2022-07-10T11:31:18;21.00;66.70
43338;DHT22;28933;52.492;13.434;2022-07-10T11:33:55;21.10;66.70
43338;DHT22;28933;52.492;13.434;2022-07-10T11:36:26;21.20;66.40
43338;DHT22;28933;52.492;13.434;2022-07-10T11:39:02;21.20;66.30
43338;DHT22;28933;52.492;13.434;2022-07-10T11:41:28;21.20;66.00
43338;DHT22;28933;52.492;13.434;2022-07-10T11:43:56;21.20;65.90
43338;DHT22;28933;52.492;13.434;2022-07-10T11:46:27;21.30;66.70
43338;DHT22;28933;52.492;13.434;2022-07-10T11:48:53;21.30;66.40
43338;DHT22;28933;52.492;13.434;2022-07-10T11:51:29;21.40;66.60
43338;DHT22;28933;52.492;13.434;2022-07-10T11:56:22;21.50;64.80
43338;DHT22;28933;52.492;13.434;2022-07-10T12:01:29;21.50;66.10
43338;DHT22;28933;52.492;13.434;2022-07-10T12:04:06;21.50;65.80
43338;DHT22;28933;52.492;13.434;2022-07-10T12:06:34;21.50;65.30
43338;DHT22;28933;52.492;13.434;2022-07-10T12:09:04;21.40;65.10
43338;DHT22;28933;52.492;13.434;2022-07-10T12:11:31;21.20;65.30
43338;DHT22;28933;52.492;13.434;2022-07-10T12:14:16;21.10;65.80
43338;DHT22;28933;52.492;13.434;2022-07-10T12:16:47;21.10;65.60
43338;DHT22;28933;52.492;13.434;2022-07-10T12:19:18;21.00;65.20
43338;DHT22;28933;52.492;13.434;2022-07-10T12:21:46;20.90;65.80
43338;DHT22;28933;52.492;13.434;2022-07-10T12:24:13;21.00;65.20
43338;DHT22;28933;52.492;13.434;2022-07-10T12:26:42;21.00;64.60
43338;DHT22;28933;52.492;13.434;2022-07-10T12:29:18;21.00;64.70
43338;DHT22;28933;52.492;13.434;2022-07-10T12:31:46;21.20;65.30
43338;DHT22;28933;52.492;13.434;2022-07-10T12:34:12;21.30;65.10
43338;DHT22;28933;52.492;13.434;2022-07-10T12:39:10;21.50;64.90
43338;DHT22;28933;52.492;13.434;2022-07-10T12:42:00;21.50;65.00
43338;DHT22;28933;52.492;13.434;2022-07-10T12:44:41;21.50;64.60
43338;DHT22;28933;52.492;13.434;2022-07-10T12:47:09;21.50;64.20
43338;DHT22;28933;52.492;13.434;2022-07-10T12:49:54;21.40;64.40
43338;DHT22;28933;52.492;13.434;2022-07-10T12:54:46;21.30;65.10
43338;DHT22;28933;52.492;13.434;2022-07-10T12:57:12;21.40;64.80
43338;DHT22;28933;52.492;13.434;2022-07-10T12:59:38;21.50;65.00
43338;DHT22;28933;52.492;13.434;2022-07-10T13:02:17;21.50;64.40
43338;DHT22;28933;52.492;13.434;2022-07-10T13:04:57;21.60;64.20
43338;DHT22;28933;52.492;13.434;2022-07-10T13:07:33;21.60;64.50
43338;DHT22;28933;52.492;13.434;2022-07-10T13:10:03;21.70;64.20
43338;DHT22;28933;52.492;13.434;2022-07-10T13:12:29;21.80;64.30
43338;DHT22;28933;52.492;13.434;2022-07-10T13:14:54;22.00;64.10
43338;DHT22;28933;52.492;13.434;2022-07-10T13:17:20;22.10;63.70
43338;DHT22;28933;52.492;13.434;2022-07-10T13:19:46;22.20;63.00
43338;DHT22;28933;52.492;13.434;2022-07-10T13:22:12;22.30;62.50
43338;DHT22;28933;52.492;13.434;2022-07-10T13:24:37;22.30;63.40
43338;DHT22;28933;52.492;13.434;2022-07-10T13:27:03;22.20;62.80
43338;DHT22;28933;52.492;13.434;2022-07-10T13:29:29;22.20;63.30
43338;DHT22;28933;52.492;13.434;2022-07-10T13:31:55;22.20;63.10
43338;DHT22;28933;52.492;13.434;2022-07-10T13:34:20;22.30;63.40
43338;DHT22;28933;52.492;13.434;2022-07-10T13:36:46;22.30;62.80
43338;DHT22;28933;52.492;13.434;2022-07-10T13:39:11;22.30;63.10
43338;DHT22;28933;52.492;13.434;2022-07-10T13:41:37;22.30;63.20
43338;DHT22;28933;52.492;13.434;2022-07-10T13:44:03;22.30;62.70
43338;DHT22;28933;52.492;13.434;2022-07-10T13:46:29;22.40;62.30
43338;DHT22;28933;52.492;13.434;2022-07-10T13:48:54;22.40;62.70
43338;DHT22;28933;52.492;13.434;2022-07-10T13:51:20;22.40;62.00
43338;DHT22;28933;52.492;13.434;2022-07-10T13:53:45;22.40;62.90
43338;DHT22;28933;52.492;13.434;2022-07-10T13:56:11;22.50;62.30
43338;DHT22;28933;52.492;13.434;2022-07-10T13:58:37;22.50;61.90
43338;DHT22;28933;52.492;13.434;2022-07-10T14:01:04;22.30;61.40
43338;DHT22;28933;52.492;13.434;2022-07-10T14:03:30;22.20;61.70
43338;DHT22;28933;52.492;13.434;2022-07-10T14:05:57;22.10;62.00
43338;DHT22;28933;52.492;13.434;2022-07-10T14:08:23;22.10;62.20
43338;DHT22;28933;52.492;13.434;2022-07-10T14:10:48;22.10;62.10
43338;DHT22;28933;52.492;13.434;2022-07-10T14:13:14;22.20;62.20
43338;DHT22;28933;52.492;13.434;2022-07-10T14:15:40;22.20;62.20
43338;DHT22;28933;52.492;13.434;2022-07-10T14:18:06;22.20;61.80
43338;DHT22;28933;52.492;13.434;2022-07-10T14:20:32;22.10;61.10
43338;DHT22;28933;52.492;13.434;2022-07-10T14:23:17;22.30;61.70
43338;DHT22;28933;52.492;13.434;2022-07-10T14:25:43;22.50;61.30
43338;DHT22;28933;52.492;13.434;2022-07-10T14:28:09;22.70;61.50
43338;DHT22;28933;52.492;13.434;2022-07-10T14:30:34;22.70;59.40
43338;DHT22;28933;52.492;13.434;2022-07-10T14:33:00;22.70;59.10
43338;DHT22;28933;52.492;13.434;2022-07-10T14:35:25;22.70;59.50
43338;DHT22;28933;52.492;13.434;2022-07-10T14:37:51;22.70;59.00
43338;DHT22;28933;52.492;13.434;2022-07-10T14:40:16;22.80;60.00
43338;DHT22;28933;52.492;13.434;2022-07-10T14:42:42;23.00;59.60
43338;DHT22;28933;52.492;13.434;2022-07-10T14:45:09;22.90;58.40
43338;DHT22;28933;52.492;13.434;2022-07-10T14:47:35;23.00;58.10
43338;DHT22;28933;52.492;13.434;2022-07-10T14:50:00;22.90;58.30
43338;DHT22;28933;52.492;13.434;2022-07-10T14:52:26;22.90;58.20
43338;DHT22;28933;52.492;13.434;2022-07-10T14:54:54;23.00;57.90
43338;DHT22;28933;52.492;13.434;2022-07-10T14:57:20;23.10;57.70
43338;DHT22;28933;52.492;13.434;2022-07-10T14:59:45;23.10;57.10
43338;DHT22;28933;52.492;13.434;2022-07-10T15:02:11;23.10;57.20
43338;DHT22;28933;52.492;13.434;2022-07-10T15:04:37;23.10;57.40
43338;DHT22;28933;52.492;13.434;2022-07-10T15:07:03;23.20;57.30
43338;DHT22;28933;52.492;13.434;2022-07-10T15:09:28;23.30;58.00
43338;DHT22;28933;52.492;13.434;2022-07-10T15:11:54;23.40;57.20
43338;DHT22;28933;52.492;13.434;2022-07-10T15:14:20;23.50;57.20
43338;DHT22;28933;52.492;13.434;2022-07-10T15:16:47;23.60;57.50
43338;DHT22;28933;52.492;13.434;2022-07-10T15:19:13;23.70;56.90
43338;DHT22;28933;52.492;13.434;2022-07-10T15:21:38;23.80;56.20
43338;DHT22;28933;52.492;13.434;2022-07-10T15:24:04;23.90;56.50
43338;DHT22;28933;52.492;13.434;2022-07-10T15:26:30;24.00;55.60
43338;DHT22;28933;52.492;13.434;2022-07-10T15:28:55;24.00;55.60
43338;DHT22;28933;52.492;13.434;2022-07-10T15:31:24;24.00;54.80
43338;DHT22;28933;52.492;13.434;2022-07-10T15:33:50;24.00;54.70
43338;DHT22;28933;52.492;13.434;2022-07-10T15:36:15;23.80;55.00
43338;DHT22;28933;52.492;13.434;2022-07-10T15:38:41;23.80;55.20
43338;DHT22;28933;52.492;13.434;2022-07-10T15:41:07;23.80;55.70
43338;DHT22;28933;52.492;13.434;2022-07-10T15:43:33;23.80;55.10
43338;DHT22;28933;52.492;13.434;2022-07-10T15:45:58;23.90;55.50
43338;DHT22;28933;52.492;13.434;2022-07-10T15:48:24;24.00;55.70
43338;DHT22;28933;52.492;13.434;2022-07-10T15:50:50;24.10;54.00
43338;DHT22;28933;52.492;13.434;2022-07-10T15:53:16;23.90;54.60